createdAt,value
2023-02-27T00:00:07.579Z,61.07
2023-02-27T00:02:10.122Z,60.41
2023-02-27T00:04:12.615Z,59.24
2023-02-27T00:06:14.996Z,59.53
2023-02-27T00:08:17.497Z,59.10
2023-02-27T00:10:20.235Z,58.51
2023-02-27T00:12:22.895Z,57.41
2023-02-27T00:14:25.496Z,58.07
2023-02-27T00:16:27.833Z,59.07
2023-02-27T00:18:30.120Z,59.50
2023-02-27T00:20:38.457Z,59.86
2023-02-27T00:22:41.568Z,60.34
2023-02-27T00:24:44.096Z,60.54
2023-02-27T00:26:46.587Z,60.62
2023-02-27T00:28:49.203Z,61.03
2023-02-27T00:30:51.698Z,61.13
2023-02-27T00:32:55.126Z,61.73
2023-02-27T00:34:57.920Z,61.56
2023-02-27T00:37:01.284Z,61.70
2023-02-27T00:39:04.876Z,61.78
2023-02-27T00:41:07.212Z,62.30
2023-02-27T00:43:09.535Z,62.00
2023-02-27T00:45:12.743Z,62.12
2023-02-27T00:47:14.957Z,62.04
2023-02-27T00:49:17.199Z,62.55
2023-02-27T00:51:22.391Z,62.61
2023-02-27T00:53:25.209Z,62.65
2023-02-27T00:55:27.550Z,62.62
2023-02-27T00:57:30.296Z,62.07
2023-02-27T00:59:33.000Z,62.38
2023-02-27T01:01:35.738Z,62.72
2023-02-27T01:03:38.062Z,62.65
2023-02-27T01:05:40.800Z,62.34
2023-02-27T01:07:43.450Z,63.03
2023-02-27T01:09:45.946Z,62.68
2023-02-27T01:11:50.483Z,62.62
2023-02-27T01:13:52.965Z,62.89
2023-02-27T01:15:55.415Z,62.49
2023-02-27T01:17:57.763Z,62.45
2023-02-27T01:20:00.209Z,62.61
2023-02-27T01:22:02.351Z,62.58
2023-02-27T01:24:05.445Z,62.79
2023-02-27T01:26:08.395Z,62.68
2023-02-27T01:28:10.852Z,61.97
2023-02-27T01:30:15.874Z,62.29
2023-02-27T01:32:20.337Z,62.21
2023-02-27T01:34:23.013Z,62.44
2023-02-27T01:36:25.526Z,61.89
2023-02-27T01:38:28.200Z,62.29
2023-02-27T01:40:35.171Z,62.25
2023-02-27T01:42:37.989Z,62.30
2023-02-27T01:45:12.200Z,61.97
2023-02-27T01:47:14.604Z,61.59
2023-02-27T01:49:24.943Z,61.62
2023-02-27T01:51:33.366Z,61.15
2023-02-27T01:53:39.588Z,61.21
2023-02-27T01:55:42.976Z,61.09
2023-02-27T01:57:48.126Z,60.82
2023-02-27T01:59:50.830Z,60.94
2023-02-27T02:01:53.569Z,61.04
2023-02-27T02:04:28.503Z,61.46
2023-02-27T02:06:38.838Z,60.60
2023-02-27T02:08:47.569Z,60.33
2023-02-27T02:10:52.278Z,59.89
2023-02-27T02:12:55.602Z,60.03
2023-02-27T02:14:58.020Z,60.57
2023-02-27T02:17:13.915Z,60.10
2023-02-27T02:19:37.053Z,59.64
2023-02-27T02:21:57.420Z,59.70
2023-02-27T02:24:17.855Z,59.86
2023-02-27T02:26:44.015Z,60.31
2023-02-27T02:29:06.632Z,59.81
2023-02-27T02:31:20.624Z,59.71
2023-02-27T02:33:54.099Z,59.65
2023-02-27T02:36:29.631Z,59.54
2023-02-27T02:39:25.348Z,59.63
2023-02-27T02:41:51.086Z,59.67
2023-02-27T02:44:16.072Z,59.49
2023-02-27T02:46:30.627Z,59.79
2023-02-27T02:48:44.772Z,59.77
2023-02-27T02:51:07.943Z,59.17
2023-02-27T02:53:22.456Z,59.78
2023-02-27T02:55:44.959Z,59.14
2023-02-27T02:57:59.322Z,58.84
2023-02-27T03:00:19.412Z,58.49
2023-02-27T03:02:27.408Z,57.76
2023-02-27T03:04:55.293Z,58.63
2023-02-27T03:07:10.052Z,58.69
2023-02-27T03:09:28.487Z,58.87
2023-02-27T03:11:38.589Z,58.53
2023-02-27T03:13:51.735Z,57.99
2023-02-27T03:15:57.177Z,58.16
2023-02-27T03:18:17.629Z,58.43
2023-02-27T03:20:29.950Z,58.54
2023-02-27T03:22:39.207Z,58.68
2023-02-27T03:24:47.455Z,57.98
2023-02-27T03:26:54.502Z,57.42
2023-02-27T03:29:02.811Z,57.68
2023-02-27T03:31:20.529Z,58.04
2023-02-27T03:33:32.117Z,57.87
2023-02-27T03:35:54.676Z,57.96
2023-02-27T03:38:06.491Z,57.92
2023-02-27T03:40:59.558Z,58.09
2023-02-27T03:43:51.059Z,58.07
2023-02-27T03:45:56.417Z,57.40
2023-02-27T03:47:59.898Z,58.04
2023-02-27T03:50:02.663Z,58.18
2023-02-27T03:52:05.294Z,57.60
2023-02-27T03:54:27.784Z,57.60
2023-02-27T03:56:38.640Z,57.62
2023-02-27T03:58:41.907Z,57.59
2023-02-27T04:00:44.608Z,57.88
2023-02-27T04:02:52.184Z,57.70
2023-02-27T04:04:58.647Z,57.99
2023-02-27T04:07:24.534Z,58.26
2023-02-27T04:09:45.496Z,57.58
2023-02-27T04:11:56.184Z,57.45
2023-02-27T04:14:32.633Z,57.11
2023-02-27T04:16:37.871Z,57.32
2023-02-27T04:18:58.223Z,57.23
2023-02-27T04:21:19.429Z,57.32
2023-02-27T04:23:42.252Z,57.65
2023-02-27T04:26:26.342Z,57.64
2023-02-27T04:28:47.452Z,58.00
2023-02-27T04:31:10.279Z,58.20
2023-02-27T04:33:12.723Z,58.05
2023-02-27T04:35:21.546Z,58.53
2023-02-27T04:37:36.511Z,58.63
2023-02-27T04:39:47.345Z,58.85
2023-02-27T04:42:03.791Z,58.42
2023-02-27T04:44:09.337Z,58.92
2023-02-27T04:46:16.510Z,58.76
2023-02-27T04:48:24.506Z,58.41
2023-02-27T04:50:42.701Z,58.32
2023-02-27T04:52:55.965Z,58.50
2023-02-27T04:55:26.865Z,58.57
2023-02-27T04:57:38.863Z,58.14
2023-02-27T04:59:45.148Z,58.76
2023-02-27T05:02:02.583Z,58.55
2023-02-27T05:04:07.912Z,58.23
2023-02-27T05:06:12.279Z,58.59
2023-02-27T05:08:30.445Z,58.78
2023-02-27T05:10:35.431Z,58.95
2023-02-27T05:12:59.091Z,58.57
2023-02-27T05:15:04.597Z,58.75
2023-02-27T05:17:18.471Z,58.58
2023-02-27T05:19:21.861Z,58.77
2023-02-27T05:21:59.351Z,58.63
2023-02-27T05:24:22.777Z,58.60
2023-02-27T05:26:31.293Z,58.58
2023-02-27T05:28:55.557Z,58.92
2023-02-27T05:31:21.347Z,58.63
2023-02-27T05:33:43.536Z,59.20
2023-02-27T05:36:06.559Z,58.88
2023-02-27T05:38:28.438Z,59.11
2023-02-27T05:40:37.837Z,59.14
2023-02-27T05:43:02.683Z,59.96
2023-02-27T05:45:13.709Z,60.01
2023-02-27T05:47:24.036Z,59.33
2023-02-27T05:50:00.484Z,59.27
2023-02-27T05:52:07.013Z,59.58
2023-02-27T05:54:36.621Z,59.95
2023-02-27T05:56:43.406Z,59.90
2023-02-27T05:58:54.835Z,60.13
2023-02-27T06:01:02.446Z,60.29
2023-02-27T06:03:05.464Z,59.87
2023-02-27T06:05:08.579Z,60.21
2023-02-27T06:07:14.134Z,60.02
2023-02-27T06:09:16.904Z,59.99
2023-02-27T06:11:19.561Z,59.62
2023-02-27T06:13:23.093Z,59.98
2023-02-27T06:15:25.590Z,59.49
2023-02-27T06:17:27.755Z,60.22
2023-02-27T06:19:30.136Z,60.11
2023-02-27T06:21:33.113Z,60.19
2023-02-27T06:23:35.616Z,60.11
2023-02-27T06:25:39.038Z,60.68
2023-02-27T06:27:41.695Z,60.01
2023-02-27T06:29:44.160Z,60.16
2023-02-27T06:31:46.753Z,60.05
2023-02-27T06:33:49.165Z,60.84
2023-02-27T06:35:52.609Z,61.01
2023-02-27T06:37:56.278Z,61.19
2023-02-27T06:39:58.536Z,61.15
2023-02-27T06:42:00.819Z,61.01
2023-02-27T06:44:03.331Z,60.94
2023-02-27T06:46:05.933Z,61.25
2023-02-27T06:48:09.167Z,61.50
2023-02-27T06:50:13.919Z,61.69
2023-02-27T06:52:16.503Z,61.30
2023-02-27T06:54:18.736Z,61.36
2023-02-27T06:56:21.952Z,61.69
2023-02-27T06:58:25.585Z,61.96
2023-02-27T07:00:28.022Z,62.29
2023-02-27T07:02:30.330Z,61.55
2023-02-27T07:04:33.049Z,61.66
2023-02-27T07:07:35.453Z,61.88
2023-02-27T07:09:07.022Z,62.02
2023-02-27T07:11:09.971Z,61.97
2023-02-27T07:13:13.714Z,61.96
2023-02-27T07:15:18.352Z,61.68
2023-02-27T07:17:22.718Z,61.51
2023-02-27T07:19:25.462Z,61.57
2023-02-27T07:21:28.037Z,61.70
2023-02-27T07:23:30.463Z,61.97
2023-02-27T07:25:32.882Z,61.72
2023-02-27T07:27:35.457Z,61.99
2023-02-27T07:29:38.052Z,62.48
2023-02-27T07:31:41.115Z,62.25
2023-02-27T07:33:43.529Z,62.48
2023-02-27T07:35:46.167Z,62.61
2023-02-27T07:37:49.223Z,62.80
2023-02-27T07:39:51.656Z,62.85
2023-02-27T07:41:54.556Z,61.79
2023-02-27T07:43:58.516Z,62.21
2023-02-27T07:46:04.290Z,62.46
2023-02-27T07:48:07.678Z,61.52
2023-02-27T07:50:14.254Z,61.88
2023-02-27T07:52:16.745Z,61.69
2023-02-27T07:54:19.558Z,61.83
2023-02-27T07:56:22.131Z,61.77
2023-02-27T07:58:24.626Z,61.56
2023-02-27T08:00:27.358Z,61.63
2023-02-27T08:02:30.177Z,60.82
2023-02-27T08:04:32.559Z,61.50
2023-02-27T08:06:35.126Z,61.97
2023-02-27T08:08:37.795Z,61.77
2023-02-27T08:10:40.899Z,62.07
2023-02-27T08:12:43.290Z,62.01
2023-02-27T08:14:45.985Z,61.68
2023-02-27T08:16:49.039Z,61.89
2023-02-27T08:18:51.877Z,61.93
2023-02-27T08:20:57.160Z,62.09
2023-02-27T08:22:59.998Z,61.97
2023-02-27T08:25:02.865Z,61.99
2023-02-27T08:27:05.146Z,60.52
2023-02-27T08:29:08.157Z,61.55
2023-02-27T08:31:10.856Z,61.23
2023-02-27T08:33:14.187Z,61.51
2023-02-27T08:35:16.803Z,61.20
2023-02-27T08:37:19.854Z,60.85
2023-02-27T08:39:24.557Z,60.97
2023-02-27T08:41:27.415Z,60.48
2023-02-27T08:43:29.983Z,61.17
2023-02-27T08:45:32.927Z,61.34
2023-02-27T08:47:35.549Z,61.01
2023-02-27T08:49:38.217Z,61.55
2023-02-27T08:51:41.517Z,60.88
2023-02-27T08:53:44.691Z,60.27
2023-02-27T08:55:56.272Z,59.90
2023-02-27T08:57:59.684Z,59.56
2023-02-27T09:00:03.122Z,59.49
2023-02-27T09:02:06.284Z,59.63
2023-02-27T09:04:09.028Z,59.52
2023-02-27T09:06:13.176Z,60.48
2023-02-27T09:08:15.853Z,60.51
2023-02-27T09:10:18.385Z,59.81
2023-02-27T09:12:20.833Z,59.55
2023-02-27T09:14:24.353Z,60.07
2023-02-27T09:16:27.673Z,59.97
2023-02-27T09:18:31.512Z,60.34
2023-02-27T09:20:36.151Z,59.43
2023-02-27T09:22:39.526Z,59.35
2023-02-27T09:24:41.846Z,58.73
2023-02-27T09:26:46.420Z,58.50
2023-02-27T09:28:49.984Z,58.43
2023-02-27T09:30:52.311Z,58.19
2023-02-27T09:32:55.278Z,58.46
2023-02-27T09:35:01.107Z,59.27
2023-02-27T09:37:03.730Z,58.71
2023-02-27T09:39:06.280Z,58.09
2023-02-27T09:41:33.556Z,58.22
2023-02-27T09:43:44.371Z,58.27
2023-02-27T09:45:54.609Z,58.93
2023-02-27T09:48:08.544Z,57.33
2023-02-27T09:50:26.404Z,56.90
2023-02-27T09:52:31.706Z,57.29
2023-02-27T09:54:34.817Z,57.30
2023-02-27T09:56:47.919Z,58.51
2023-02-27T09:59:13.554Z,57.71
2023-02-27T10:01:28.571Z,58.12
2023-02-27T10:04:01.818Z,58.67
2023-02-27T10:06:22.528Z,58.71
2023-02-27T10:08:53.696Z,59.96
2023-02-27T10:11:12.437Z,60.29
2023-02-27T10:13:33.154Z,60.13
2023-02-27T10:15:47.210Z,61.29
2023-02-27T10:17:56.040Z,61.36
2023-02-27T10:20:04.801Z,60.64
2023-02-27T10:22:14.404Z,60.23
2023-02-27T10:24:32.061Z,60.69
2023-02-27T10:26:39.831Z,59.91
2023-02-27T10:28:42.431Z,58.52
2023-02-27T10:30:49.130Z,59.47
2023-02-27T10:33:08.950Z,59.17
2023-02-27T10:35:22.382Z,58.34
2023-02-27T10:37:26.752Z,58.18
2023-02-27T10:39:32.511Z,57.59
2023-02-27T10:41:36.915Z,57.91
2023-02-27T10:43:40.879Z,58.21
2023-02-27T10:45:44.339Z,57.96
2023-02-27T10:47:47.057Z,57.97
2023-02-27T10:49:50.079Z,57.61
2023-02-27T10:52:11.797Z,57.08
2023-02-27T10:54:20.071Z,57.04
2023-02-27T10:56:28.093Z,56.17
2023-02-27T10:58:34.971Z,55.99
2023-02-27T11:00:57.365Z,55.21
2023-02-27T11:03:00.334Z,55.70
2023-02-27T11:05:03.938Z,55.84
2023-02-27T11:07:12.587Z,56.05
2023-02-27T11:09:27.118Z,55.90
2023-02-27T11:11:29.793Z,56.28
2023-02-27T11:13:35.459Z,56.47
2023-02-27T11:15:39.117Z,56.20
2023-02-27T11:17:42.298Z,56.26
2023-02-27T11:19:44.867Z,55.81
2023-02-27T11:22:01.718Z,54.68
2023-02-27T11:24:19.973Z,54.26
2023-02-27T11:26:25.039Z,55.64
2023-02-27T11:28:31.191Z,55.21
2023-02-27T11:30:33.988Z,55.00
2023-02-27T11:32:44.938Z,53.78
2023-02-27T11:34:50.563Z,55.63
2023-02-27T11:37:01.033Z,53.79
2023-02-27T11:39:04.175Z,51.88
2023-02-27T11:41:09.346Z,52.75
2023-02-27T11:43:28.648Z,54.12
2023-02-27T11:46:05.291Z,54.40
2023-02-27T11:48:12.680Z,53.67
2023-02-27T11:50:41.126Z,52.08
2023-02-27T11:53:15.025Z,53.63
2023-02-27T11:55:25.121Z,53.18
2023-02-27T11:57:35.715Z,52.89
2023-02-27T11:59:48.709Z,53.06
2023-02-27T12:01:55.190Z,53.01
2023-02-27T12:04:10.475Z,52.77
2023-02-27T12:06:42.673Z,51.65
2023-02-27T12:08:55.416Z,53.10
2023-02-27T12:11:18.500Z,54.00
2023-02-27T12:13:32.588Z,53.65
2023-02-27T12:16:01.345Z,54.11
2023-02-27T12:18:27.772Z,54.60
2023-02-27T12:20:36.560Z,54.54
2023-02-27T12:22:46.099Z,54.58
2023-02-27T12:24:58.152Z,54.92
2023-02-27T12:27:25.674Z,53.54
2023-02-27T12:29:40.685Z,53.52
2023-02-27T12:31:50.196Z,53.42
2023-02-27T12:34:05.618Z,53.08
2023-02-27T12:36:14.236Z,52.37
2023-02-27T12:38:17.428Z,53.96
2023-02-27T12:40:26.384Z,53.86
2023-02-27T12:42:36.791Z,53.04
2023-02-27T12:44:49.874Z,50.87
2023-02-27T12:47:27.247Z,51.77
2023-02-27T12:49:53.363Z,50.84
2023-02-27T12:52:14.474Z,50.82
2023-02-27T12:54:27.280Z,51.16
2023-02-27T12:56:59.197Z,49.52
2023-02-27T12:59:34.457Z,49.43
2023-02-27T13:01:53.813Z,48.26
2023-02-27T13:04:04.386Z,49.00
2023-02-27T13:06:41.375Z,50.35
2023-02-27T13:08:57.936Z,50.14
2023-02-27T13:11:07.249Z,50.79
2023-02-27T13:13:20.190Z,49.75
2023-02-27T13:15:38.714Z,50.11
2023-02-27T13:17:52.882Z,49.61
2023-02-27T13:20:09.369Z,50.21
2023-02-27T13:22:33.409Z,49.98
2023-02-27T13:24:50.176Z,50.33
2023-02-27T13:27:09.205Z,50.52
2023-02-27T13:29:15.848Z,49.96
2023-02-27T13:31:30.231Z,50.92
2023-02-27T13:33:44.201Z,48.19
2023-02-27T13:36:04.323Z,48.08
2023-02-27T13:38:33.594Z,48.70
2023-02-27T13:40:42.071Z,46.84
2023-02-27T13:42:47.221Z,47.98
2023-02-27T13:44:50.376Z,46.72
2023-02-27T13:46:53.138Z,47.14
2023-02-27T13:49:04.719Z,47.26
2023-02-27T13:51:33.121Z,46.63
2023-02-27T13:53:35.951Z,46.13
2023-02-27T13:55:40.374Z,45.65
2023-02-27T13:57:47.700Z,46.23
2023-02-27T14:00:06.012Z,47.30
2023-02-27T14:02:56.526Z,46.94
2023-02-27T14:05:06.936Z,47.88
2023-02-27T14:07:19.329Z,49.00
2023-02-27T14:09:22.984Z,47.24
2023-02-27T14:11:27.257Z,47.22
2023-02-27T14:13:52.713Z,48.50
2023-02-27T14:15:57.726Z,48.15
2023-02-27T14:18:14.265Z,48.77
2023-02-27T14:20:24.621Z,50.12
2023-02-27T14:22:37.557Z,49.71
2023-02-27T14:25:03.490Z,48.91
2023-02-27T14:27:23.378Z,47.47
2023-02-27T14:29:31.899Z,48.22
2023-02-27T14:31:39.382Z,48.54
2023-02-27T14:33:49.037Z,48.10
2023-02-27T14:36:03.285Z,48.97
2023-02-27T14:38:12.243Z,48.93
2023-02-27T14:40:31.792Z,48.47
2023-02-27T14:42:52.264Z,48.83
2023-02-27T14:44:56.488Z,48.32
2023-02-27T14:47:03.622Z,47.80
2023-02-27T14:49:23.550Z,48.70
2023-02-27T14:51:28.442Z,48.65
2023-02-27T14:53:31.180Z,47.03
2023-02-27T14:55:35.681Z,47.15
2023-02-27T14:57:40.486Z,47.52
2023-02-27T14:59:48.720Z,47.90
2023-02-27T15:01:51.493Z,47.60
2023-02-27T15:03:57.804Z,47.37
2023-02-27T15:06:04.240Z,47.93
2023-02-27T15:08:08.682Z,47.69
2023-02-27T15:10:25.587Z,47.68
2023-02-27T15:12:29.479Z,49.01
2023-02-27T15:14:37.496Z,50.32
2023-02-27T15:16:40.950Z,50.47
2023-02-27T15:18:45.908Z,51.54
2023-02-27T15:20:59.128Z,51.48
2023-02-27T15:23:20.392Z,50.88
2023-02-27T15:25:38.401Z,51.45
2023-02-27T15:27:42.675Z,51.57
2023-02-27T15:29:50.750Z,51.67
2023-02-27T15:31:54.875Z,52.20
2023-02-27T15:33:59.966Z,51.15
2023-02-27T15:36:02.848Z,50.98
2023-02-27T15:38:06.378Z,51.79
2023-02-27T15:40:19.297Z,52.06
2023-02-27T15:42:27.033Z,52.36
2023-02-27T15:44:36.398Z,52.08
2023-02-27T15:46:39.207Z,52.92
2023-02-27T15:48:41.766Z,52.55
2023-02-27T15:51:00.009Z,53.42
2023-02-27T15:53:24.213Z,52.87
2023-02-27T15:55:31.622Z,53.63
2023-02-27T15:57:34.529Z,52.70
2023-02-27T15:59:42.422Z,53.49
2023-02-27T16:01:46.775Z,53.01
2023-02-27T16:03:55.500Z,53.17
2023-02-27T16:05:58.355Z,52.87
2023-02-27T16:08:03.095Z,52.70
2023-02-27T16:10:11.258Z,53.25
2023-02-27T16:12:38.257Z,53.19
2023-02-27T16:14:45.256Z,52.37
2023-02-27T16:16:55.628Z,52.42
2023-02-27T16:19:00.720Z,52.98
2023-02-27T16:21:31.577Z,53.19
2023-02-27T16:23:33.995Z,53.13
2023-02-27T16:25:36.465Z,53.38
2023-02-27T16:27:40.392Z,52.26
2023-02-27T16:29:46.064Z,52.46
2023-02-27T16:31:52.054Z,53.12
2023-02-27T16:33:57.223Z,52.81
2023-02-27T16:36:28.060Z,52.70
2023-02-27T16:38:34.171Z,53.55
2023-02-27T16:40:36.886Z,53.66
2023-02-27T16:42:41.322Z,52.63
2023-02-27T16:44:44.137Z,53.19
2023-02-27T16:46:47.282Z,52.59
2023-02-27T16:48:55.403Z,53.74
2023-02-27T16:50:58.652Z,53.02
2023-02-27T16:53:01.608Z,51.61
2023-02-27T16:55:05.042Z,53.14
2023-02-27T16:57:09.441Z,52.36
2023-02-27T16:59:25.009Z,52.62
2023-02-27T17:01:27.988Z,52.59
2023-02-27T17:03:30.558Z,53.05
2023-02-27T17:05:33.427Z,52.55
2023-02-27T17:07:36.234Z,52.68
2023-02-27T17:09:38.938Z,52.77
2023-02-27T17:11:41.526Z,52.40
2023-02-27T17:13:44.470Z,52.89
2023-02-27T17:15:47.651Z,53.11
2023-02-27T17:17:50.322Z,52.78
2023-02-27T17:19:53.015Z,53.43
2023-02-27T17:21:55.990Z,52.72
2023-02-27T17:24:08.307Z,53.33
2023-02-27T17:26:11.357Z,52.98
2023-02-27T17:28:14.167Z,52.78
2023-02-27T17:30:17.012Z,53.22
2023-02-27T17:32:19.928Z,53.42
2023-02-27T17:34:23.010Z,53.70
2023-02-27T17:36:26.029Z,53.32
2023-02-27T17:38:29.308Z,53.20
2023-02-27T17:40:31.918Z,53.68
2023-02-27T17:42:37.306Z,53.70
2023-02-27T17:44:40.691Z,53.68
2023-02-27T17:46:43.400Z,53.27
2023-02-27T17:48:46.469Z,54.34
2023-02-27T17:50:49.060Z,53.92
2023-02-27T17:52:52.146Z,54.16
2023-02-27T17:54:56.352Z,54.23
2023-02-27T17:56:59.239Z,54.63
2023-02-27T17:59:01.799Z,54.28
2023-02-27T18:01:13.263Z,54.89
2023-02-27T18:03:17.002Z,55.26
2023-02-27T18:05:19.914Z,54.61
2023-02-27T18:07:22.622Z,54.67
2023-02-27T18:09:25.209Z,55.53
2023-02-27T18:11:27.754Z,55.74
2023-02-27T18:13:30.917Z,55.84
2023-02-27T18:15:33.595Z,55.72
2023-02-27T18:17:37.034Z,56.38
2023-02-27T18:19:42.390Z,55.41
2023-02-27T18:21:47.569Z,55.59
2023-02-27T18:23:52.218Z,55.20
2023-02-27T18:25:57.873Z,55.53
2023-02-27T18:28:01.741Z,54.78
2023-02-27T18:30:04.939Z,55.31
2023-02-27T18:32:10.437Z,55.31
2023-02-27T18:34:13.492Z,55.04
2023-02-27T18:36:17.618Z,55.05
2023-02-27T18:38:20.293Z,55.16
2023-02-27T18:40:25.622Z,55.52
2023-02-27T18:42:28.347Z,54.49
2023-02-27T18:44:34.514Z,54.81
2023-02-27T18:46:38.807Z,54.76
2023-02-27T18:48:44.069Z,54.81
2023-02-27T18:50:46.798Z,54.42
2023-02-27T18:52:50.751Z,54.71
2023-02-27T18:54:53.713Z,54.55
2023-02-27T18:56:57.104Z,55.32
2023-02-27T18:59:05.528Z,55.06
2023-02-27T19:01:11.915Z,55.12
2023-02-27T19:03:14.923Z,54.75
2023-02-27T19:05:18.550Z,55.01
2023-02-27T19:07:24.374Z,55.56
2023-02-27T19:09:33.229Z,55.47
2023-02-27T19:11:36.904Z,55.16
2023-02-27T19:13:39.427Z,55.54
2023-02-27T19:15:42.158Z,55.57
2023-02-27T19:17:44.813Z,55.39
2023-02-27T19:19:48.556Z,55.54
2023-02-27T19:21:51.078Z,55.41
2023-02-27T19:23:54.510Z,55.59
2023-02-27T19:26:01.812Z,55.29
2023-02-27T19:28:05.814Z,55.78
2023-02-27T19:30:09.969Z,55.94
2023-02-27T19:32:12.633Z,55.88
2023-02-27T19:34:15.633Z,56.16
2023-02-27T19:36:21.269Z,56.52
2023-02-27T19:38:24.100Z,56.92
2023-02-27T19:40:27.581Z,56.70
2023-02-27T19:42:30.448Z,56.97
2023-02-27T19:44:33.090Z,57.20
2023-02-27T19:46:36.020Z,56.85
2023-02-27T19:48:39.004Z,57.10
2023-02-27T19:50:41.595Z,58.26
2023-02-27T19:52:44.058Z,57.87
2023-02-27T19:54:46.588Z,58.67
2023-02-27T19:56:49.639Z,57.80
2023-02-27T19:58:54.504Z,58.57
2023-02-27T20:00:57.229Z,58.57
2023-02-27T20:03:00.160Z,59.39
2023-02-27T20:05:03.667Z,59.56
2023-02-27T20:07:06.166Z,59.35
2023-02-27T20:09:13.354Z,59.64
2023-02-27T20:11:17.711Z,59.19
2023-02-27T20:13:20.188Z,59.13
2023-02-27T20:15:23.068Z,59.17
2023-02-27T20:17:25.605Z,59.92
2023-02-27T20:19:28.191Z,59.43
2023-02-27T20:21:31.636Z,59.98
2023-02-27T20:23:36.682Z,59.68
2023-02-27T20:25:39.224Z,59.70
2023-02-27T20:27:42.137Z,58.61
2023-02-27T20:29:44.733Z,59.58
2023-02-27T20:31:49.412Z,60.25
2023-02-27T20:33:52.483Z,60.15
2023-02-27T20:35:54.987Z,60.72
2023-02-27T20:37:57.455Z,60.09
2023-02-27T20:40:00.001Z,59.35
2023-02-27T20:42:02.719Z,59.63
2023-02-27T20:44:05.703Z,59.43
2023-02-27T20:46:11.916Z,59.24
2023-02-27T20:48:14.673Z,58.63
2023-02-27T20:50:17.657Z,58.01
2023-02-27T20:52:20.040Z,58.04
2023-02-27T20:54:22.769Z,58.04
2023-02-27T20:56:28.817Z,58.17
2023-02-27T20:58:31.541Z,57.33
2023-02-27T21:00:34.028Z,56.86
2023-02-27T21:02:36.612Z,56.93
2023-02-27T21:04:47.726Z,57.69
2023-02-27T21:06:51.015Z,57.53
2023-02-27T21:08:56.375Z,57.58
2023-02-27T21:11:00.696Z,57.55
2023-02-27T21:13:03.191Z,58.36
2023-02-27T21:15:06.180Z,58.56
2023-02-27T21:17:09.179Z,58.34
2023-02-27T21:19:11.630Z,57.55
2023-02-27T21:21:17.299Z,57.97
2023-02-27T21:23:19.738Z,57.73
2023-02-27T21:25:25.208Z,57.63
2023-02-27T21:27:27.621Z,57.59
2023-02-27T21:29:30.145Z,57.13
2023-02-27T21:31:35.283Z,57.37
2023-02-27T21:33:38.136Z,57.09
2023-02-27T21:35:47.270Z,56.88
2023-02-27T21:37:49.912Z,56.42
2023-02-27T21:39:55.848Z,57.22
2023-02-27T21:42:01.747Z,56.22
2023-02-27T21:44:07.469Z,56.52
2023-02-27T21:46:13.776Z,56.77
2023-02-27T21:48:16.602Z,56.99
2023-02-27T21:50:22.603Z,57.32
2023-02-27T21:52:25.683Z,57.39
2023-02-27T21:54:28.685Z,57.49
2023-02-27T21:56:31.342Z,57.13
2023-02-27T21:58:35.017Z,57.14
2023-02-27T22:00:37.921Z,57.66
2023-02-27T22:02:40.653Z,58.04
2023-02-27T22:04:43.154Z,58.86
2023-02-27T22:06:46.228Z,59.20
2023-02-27T22:08:52.354Z,58.69
2023-02-27T22:10:59.186Z,59.54
2023-02-27T22:13:02.485Z,59.78
2023-02-27T22:15:05.536Z,59.54
2023-02-27T22:17:07.912Z,59.74
2023-02-27T22:19:20.148Z,60.12
2023-02-27T22:21:25.936Z,60.36
2023-02-27T22:23:29.202Z,60.33
2023-02-27T22:25:32.245Z,59.95
2023-02-27T22:27:34.629Z,60.86
2023-02-27T22:29:38.794Z,60.90
2023-02-27T22:31:41.454Z,60.88
2023-02-27T22:33:45.716Z,60.80
2023-02-27T22:35:48.159Z,60.97
2023-02-27T22:37:50.942Z,61.23
2023-02-27T22:39:53.276Z,61.43
2023-02-27T22:41:56.881Z,61.53
2023-02-27T22:44:01.426Z,61.31
2023-02-27T22:46:04.501Z,61.36
2023-02-27T22:48:07.275Z,62.42
2023-02-27T22:50:10.855Z,62.42
2023-02-27T22:52:13.383Z,62.47
2023-02-27T22:54:16.925Z,62.34
2023-02-27T22:56:19.495Z,62.86
2023-02-27T22:58:22.834Z,62.50
2023-02-27T23:00:25.244Z,62.89
2023-02-27T23:02:33.972Z,62.71
2023-02-27T23:04:36.534Z,63.07
2023-02-27T23:06:40.652Z,63.44
2023-02-27T23:08:43.832Z,63.31
2023-02-27T23:10:46.295Z,63.57
2023-02-27T23:12:48.875Z,62.99
2023-02-27T23:14:51.329Z,63.19
2023-02-27T23:16:53.761Z,63.57
2023-02-27T23:18:58.772Z,63.15
2023-02-27T23:21:04.070Z,62.96
2023-02-27T23:23:07.462Z,62.57
2023-02-27T23:25:12.285Z,62.25
2023-02-27T23:27:25.318Z,62.94
2023-02-27T23:29:28.790Z,63.05
2023-02-27T23:31:34.138Z,62.60
2023-02-27T23:33:37.849Z,62.07
2023-02-27T23:35:40.650Z,62.51
2023-02-27T23:37:42.897Z,62.58
2023-02-27T23:39:45.432Z,62.05
2023-02-27T23:41:47.917Z,61.94
2023-02-27T23:44:12.773Z,62.30
2023-02-27T23:46:16.589Z,63.89
2023-02-27T23:48:22.420Z,63.30
2023-02-27T23:50:32.866Z,63.46
2023-02-27T23:52:35.211Z,63.15
2023-02-27T23:54:37.583Z,62.94
2023-02-27T23:56:40.328Z,62.80
2023-02-27T23:58:43.259Z,62.37
